Pagrindinis puslapis
METAR-TAF:

METAR-TAF

Oro uostai :

Kerkyra, Graikija

platuma: 39-37N, ilguma: 019-55E, Aukštis: 2 m

Dabartinis oras

Ataskaita buvo paskelbta 26 minutes, ne 06:50 UTC
Ramus vėjas
Temperatūra 20°C
Drėgmė 83%
Slėgis 1010 hPa
Matomumas 10 km arba daugiau
nėra debesų žemiau 1500 m ir nėra kamuolinių lietaus debesų

METAR: LGKR 070650Z 00000KT CAVOK 20/17 Q1010 NOSIG

Laikas: 10:16 (07:16 UTC)

Prognozė

Ataskaita buvo paskelbta 2 valandos ir 16 minutes, ne 05:00 UTC
Prognozė galioja nuo 07 metu 06 UTC su 08 metu 06 UTC
Vėjas 5 kt nuo kintamojo kryptimis
Matomumas 10 km arba daugiau
Išsisklaidę debesys ne aukštis 1500 ft
Išsisklaidę debesys ne aukštis 8000 ft
Tapsmas
nuo 07 metu 06 UTC su 07 metu 07 UTC
Mažai debesys ne aukštis 1500 ft
Laikinai
nuo 07 metu 09 UTC su 07 metu 15 UTC
Vėjas 10 kt iš Vakarų/Pietvakarių

TAF: LGKR 070500Z 0706/0806 VRB05KT 9999 SCT015 SCT080 BECMG 0706/0707 FEW015 TEMPO 0709/0715 25010KT

Orai ataskaitas ir orų prognozės (METAR, TAF).

turimą stotys yra geltonos ir raudonos taškus žemėlapyje.

Perkelti pele per norėdami pamatyti stoties vardą.

Tada spustelėkite, norėdami matyti oro stebėjimo ir prognozės.

Norėdami pakeisti žemėlapį: spustelėkite ant žalios mygtukų su juodo kryžiaus žemyn,; žalią mygtuką su brūkšneliu, jei norite nutolinti; arba žalių rodyklių gretimoms žemėlapius.


METAR-TAF: